sensor_id;sensor_type;location;lat;lon;timestamp;pressure;altitude;pressure_sealevel;temperature;humidity
73429;BME280;61643;49.564;17.412;2022-10-17T00:00:13;99299.56;;;10.67;89.83
73429;BME280;61643;49.564;17.412;2022-10-17T00:02:39;99307.03;;;10.54;89.79
73429;BME280;61643;49.564;17.412;2022-10-17T00:05:04;99305.16;;;10.54;89.79
73429;BME280;61643;49.564;17.412;2022-10-17T00:07:30;99305.84;;;10.50;90.26
73429;BME280;61643;49.564;17.412;2022-10-17T00:09:55;99301.75;;;10.47;89.71
73429;BME280;61643;49.564;17.412;2022-10-17T00:12:20;99298.91;;;10.42;90.69
73429;BME280;61643;49.564;17.412;2022-10-17T00:14:46;99299.53;;;10.44;90.32
73429;BME280;61643;49.564;17.412;2022-10-17T00:17:11;99307.00;;;10.42;91.11
73429;BME280;61643;49.564;17.412;2022-10-17T00:19:37;99303.88;;;10.45;91.46
73429;BME280;61643;49.564;17.412;2022-10-17T00:22:02;99313.09;;;10.49;90.40
73429;BME280;61643;49.564;17.412;2022-10-17T00:24:29;99304.22;;;10.49;90.82
73429;BME280;61643;49.564;17.412;2022-10-17T00:26:55;99303.03;;;10.45;90.48
73429;BME280;61643;49.564;17.412;2022-10-17T00:29:20;99303.03;;;10.45;90.28
73429;BME280;61643;49.564;17.412;2022-10-17T00:31:46;99303.03;;;10.45;90.27
73429;BME280;61643;49.564;17.412;2022-10-17T00:34:11;99300.88;;;10.35;90.27
73429;BME280;61643;49.564;17.412;2022-10-17T00:36:37;99299.03;;;10.35;90.49
73429;BME280;61643;49.564;17.412;2022-10-17T00:39:02;99295.34;;;10.18;90.24
73429;BME280;61643;49.564;17.412;2022-10-17T00:41:30;99292.19;;;10.03;91.16
73429;BME280;61643;49.564;17.412;2022-10-17T00:46:58;99292.47;;;10.13;91.40
73429;BME280;61643;49.564;17.412;2022-10-17T00:49:25;99296.16;;;10.19;91.11
73429;BME280;61643;49.564;17.412;2022-10-17T00:51:53;99297.81;;;10.20;90.14
73429;BME280;61643;49.564;17.412;2022-10-17T00:54:22;99295.34;;;10.18;90.05
73429;BME280;61643;49.564;17.412;2022-10-17T00:56:50;99295.13;;;10.20;91.09
73429;BME280;61643;49.564;17.412;2022-10-17T00:59:18;99294.75;;;10.16;90.31
73429;BME280;61643;49.564;17.412;2022-10-17T01:01:56;99301.34;;;10.14;90.23
73429;BME280;61643;49.564;17.412;2022-10-17T01:04:24;99309.06;;;10.10;91.07
73429;BME280;61643;49.564;17.412;2022-10-17T01:06:50;99300.25;;;10.03;91.64
73429;BME280;61643;49.564;17.412;2022-10-17T01:09:15;99304.13;;;10.07;90.93
73429;BME280;61643;49.564;17.412;2022-10-17T01:11:45;99315.25;;;10.11;90.75
73429;BME280;61643;49.564;17.412;2022-10-17T01:14:38;99317.31;;;10.15;90.30
73429;BME280;61643;49.564;17.412;2022-10-17T01:22:46;99316.28;;;10.16;90.39
73429;BME280;61643;49.564;17.412;2022-10-17T01:25:28;99309.81;;;9.99;91.32
73429;BME280;61643;49.564;17.412;2022-10-17T01:33:31;99294.91;;;10.33;90.37
73429;BME280;61643;49.564;17.412;2022-10-17T01:36:07;99296.63;;;10.27;90.02
73429;BME280;61643;49.564;17.412;2022-10-17T01:38:44;99298.53;;;10.27;90.28
73429;BME280;61643;49.564;17.412;2022-10-17T01:42:00;99296.28;;;10.24;90.26
73429;BME280;61643;49.564;17.412;2022-10-17T01:44:33;99289.94;;;10.18;89.89
73429;BME280;61643;49.564;17.412;2022-10-17T01:47:06;99288.53;;;10.16;90.28
73429;BME280;61643;49.564;17.412;2022-10-17T01:49:36;99293.16;;;10.09;90.60
73429;BME280;61643;49.564;17.412;2022-10-17T01:52:10;99294.28;;;10.01;90.19
73429;BME280;61643;49.564;17.412;2022-10-17T01:55:08;99299.31;;;9.98;90.23
73429;BME280;61643;49.564;17.412;2022-10-17T01:57:42;99291.53;;;9.89;90.22
73429;BME280;61643;49.564;17.412;2022-10-17T02:00:14;99302.84;;;9.80;90.14
73429;BME280;61643;49.564;17.412;2022-10-17T02:02:42;99302.31;;;9.71;90.70
73429;BME280;61643;49.564;17.412;2022-10-17T02:05:09;99302.69;;;9.57;91.04
73429;BME280;61643;49.564;17.412;2022-10-17T02:07:34;99302.16;;;9.66;90.27
73429;BME280;61643;49.564;17.412;2022-10-17T02:10:02;99307.91;;;9.70;90.86
73429;BME280;61643;49.564;17.412;2022-10-17T02:12:55;99303.97;;;9.72;90.29
73429;BME280;61643;49.564;17.412;2022-10-17T02:15:43;99305.75;;;9.60;91.61
73429;BME280;61643;49.564;17.412;2022-10-17T02:18:31;99302.59;;;9.45;91.92
73429;BME280;61643;49.564;17.412;2022-10-17T02:21:07;99308.47;;;9.35;91.97
73429;BME280;61643;49.564;17.412;2022-10-17T02:29:08;99310.13;;;9.36;92.17
73429;BME280;61643;49.564;17.412;2022-10-17T02:31:45;99305.72;;;9.42;91.69
73429;BME280;61643;49.564;17.412;2022-10-17T02:34:18;99308.63;;;9.40;90.85
73429;BME280;61643;49.564;17.412;2022-10-17T02:36:51;99310.88;;;9.44;90.77
73429;BME280;61643;49.564;17.412;2022-10-17T02:39:22;99316.47;;;9.42;91.38
73429;BME280;61643;49.564;17.412;2022-10-17T02:41:50;99305.94;;;9.40;90.99
73429;BME280;61643;49.564;17.412;2022-10-17T02:44:16;99312.97;;;9.42;91.38
73429;BME280;61643;49.564;17.412;2022-10-17T02:46:44;99305.94;;;9.40;90.91
73429;BME280;61643;49.564;17.412;2022-10-17T02:49:20;99319.16;;;9.42;90.85
73429;BME280;61643;49.564;17.412;2022-10-17T02:52:01;99314.63;;;9.43;91.16
73429;BME280;61643;49.564;17.412;2022-10-17T02:54:39;99314.63;;;9.43;90.35
73429;BME280;61643;49.564;17.412;2022-10-17T02:57:21;99314.22;;;9.39;90.76
73429;BME280;61643;49.564;17.412;2022-10-17T02:59:48;99322.06;;;9.40;91.07
73429;BME280;61643;49.564;17.412;2022-10-17T03:02:14;99325.88;;;9.33;90.94
73429;BME280;61643;49.564;17.412;2022-10-17T03:04:44;99323.19;;;9.33;91.28
73429;BME280;61643;49.564;17.412;2022-10-17T03:07:10;99333.97;;;9.26;91.57
73429;BME280;61643;49.564;17.412;2022-10-17T03:09:36;99322.56;;;9.31;91.26
73429;BME280;61643;49.564;17.412;2022-10-17T03:12:01;99324.59;;;9.35;90.47
73429;BME280;61643;49.564;17.412;2022-10-17T03:14:26;99325.44;;;9.36;91.23
73429;BME280;61643;49.564;17.412;2022-10-17T03:16:52;99333.88;;;9.39;90.65
73429;BME280;61643;49.564;17.412;2022-10-17T03:19:17;99333.25;;;9.37;90.40
73429;BME280;61643;49.564;17.412;2022-10-17T03:21:42;99330.19;;;9.34;90.80
73429;BME280;61643;49.564;17.412;2022-10-17T03:24:08;99342.00;;;9.33;90.46
73429;BME280;61643;49.564;17.412;2022-10-17T03:26:33;99347.78;;;9.30;91.07
73429;BME280;61643;49.564;17.412;2022-10-17T03:28:59;99350.72;;;9.28;90.69
73429;BME280;61643;49.564;17.412;2022-10-17T03:31:24;99362.50;;;9.27;90.18
73429;BME280;61643;49.564;17.412;2022-10-17T03:33:49;99364.84;;;9.17;91.95
73429;BME280;61643;49.564;17.412;2022-10-17T03:36:16;99366.91;;;9.22;91.43
73429;BME280;61643;49.564;17.412;2022-10-17T03:38:43;99372.28;;;9.15;91.19
73429;BME280;61643;49.564;17.412;2022-10-17T03:41:09;99377.66;;;9.15;91.86
73429;BME280;61643;49.564;17.412;2022-10-17T03:43:34;99376.38;;;9.24;91.26
73429;BME280;61643;49.564;17.412;2022-10-17T03:46:00;99383.84;;;9.22;90.74
73429;BME280;61643;49.564;17.412;2022-10-17T03:48:27;99377.25;;;9.18;90.99
73429;BME280;61643;49.564;17.412;2022-10-17T03:51:06;99373.41;;;9.08;91.84
73429;BME280;61643;49.564;17.412;2022-10-17T03:53:32;99372.91;;;8.93;92.23
73429;BME280;61643;49.564;17.412;2022-10-17T03:56:11;99360.91;;;8.95;92.23
73429;BME280;61643;49.564;17.412;2022-10-17T03:58:37;99365.25;;;8.96;91.89
73429;BME280;61643;49.564;17.412;2022-10-17T04:01:06;99367.91;;;8.96;92.03
73429;BME280;61643;49.564;17.412;2022-10-17T04:03:32;99374.91;;;8.97;91.67
73429;BME280;61643;49.564;17.412;2022-10-17T04:06:01;99371.00;;;9.00;91.55
73429;BME280;61643;49.564;17.412;2022-10-17T04:08:28;99372.03;;;8.99;91.51
73429;BME280;61643;49.564;17.412;2022-10-17T04:11:01;99375.34;;;9.01;91.33
73429;BME280;61643;49.564;17.412;2022-10-17T04:13:27;99371.44;;;8.97;91.42
73429;BME280;61643;49.564;17.412;2022-10-17T04:15:58;99375.16;;;8.96;91.29
73429;BME280;61643;49.564;17.412;2022-10-17T04:18:23;99376.41;;;8.93;91.54
73429;BME280;61643;49.564;17.412;2022-10-17T04:20:49;99374.97;;;8.90;91.76
73429;BME280;61643;49.564;17.412;2022-10-17T04:23:14;99390.88;;;8.92;91.91
73429;BME280;61643;49.564;17.412;2022-10-17T04:25:40;99378.72;;;8.89;91.69
73429;BME280;61643;49.564;17.412;2022-10-17T04:28:05;99381.41;;;8.83;92.23
73429;BME280;61643;49.564;17.412;2022-10-17T04:30:31;99378.34;;;8.79;91.87
73429;BME280;61643;49.564;17.412;2022-10-17T04:32:57;99378.53;;;8.84;91.96
73429;BME280;61643;49.564;17.412;2022-10-17T04:35:22;99388.84;;;8.87;92.72
73429;BME280;61643;49.564;17.412;2022-10-17T04:37:48;99385.94;;;8.89;91.87
73429;BME280;61643;49.564;17.412;2022-10-17T04:40:13;99387.81;;;8.88;91.66
73429;BME280;61643;49.564;17.412;2022-10-17T04:42:38;99381.41;;;8.89;91.65
73429;BME280;61643;49.564;17.412;2022-10-17T04:45:04;99391.75;;;8.86;92.27
73429;BME280;61643;49.564;17.412;2022-10-17T04:47:30;99393.38;;;8.87;92.35
73429;BME280;61643;49.564;17.412;2022-10-17T04:49:55;99400.00;;;8.84;92.71
73429;BME280;61643;49.564;17.412;2022-10-17T04:52:20;99400.41;;;8.88;93.11
73429;BME280;61643;49.564;17.412;2022-10-17T04:54:46;99402.06;;;8.89;92.56
73429;BME280;61643;49.564;17.412;2022-10-17T04:57:11;99411.09;;;8.95;92.51
73429;BME280;61643;49.564;17.412;2022-10-17T04:59:37;99405.13;;;8.93;92.33
73429;BME280;61643;49.564;17.412;2022-10-17T05:02:02;99405.78;;;8.88;92.29
73429;BME280;61643;49.564;17.412;2022-10-17T05:04:27;99397.31;;;8.84;91.52
73429;BME280;61643;49.564;17.412;2022-10-17T05:06:53;99401.22;;;8.88;91.72
73429;BME280;61643;49.564;17.412;2022-10-17T05:09:18;99404.13;;;8.87;92.22
73429;BME280;61643;49.564;17.412;2022-10-17T05:11:43;99399.38;;;8.89;92.08
73429;BME280;61643;49.564;17.412;2022-10-17T05:14:09;99410.34;;;8.81;92.18
73429;BME280;61643;49.564;17.412;2022-10-17T05:16:34;99406.03;;;8.80;92.59
73429;BME280;61643;49.564;17.412;2022-10-17T05:19:00;99411.38;;;8.80;92.71
73429;BME280;61643;49.564;17.412;2022-10-17T05:21:28;99415.53;;;8.82;92.38
73429;BME280;61643;49.564;17.412;2022-10-17T05:23:53;99419.19;;;8.88;92.17
73429;BME280;61643;49.564;17.412;2022-10-17T05:26:20;99412.78;;;8.89;92.58
73429;BME280;61643;49.564;17.412;2022-10-17T05:28:45;99411.97;;;8.88;92.58
73429;BME280;61643;49.564;17.412;2022-10-17T05:31:11;99415.25;;;8.90;91.88
73429;BME280;61643;49.564;17.412;2022-10-17T05:33:37;99419.97;;;8.95;91.52
73429;BME280;61643;49.564;17.412;2022-10-17T05:36:03;99412.75;;;8.96;92.34
73429;BME280;61643;49.564;17.412;2022-10-17T05:38:29;99413.78;;;8.95;92.31
73429;BME280;61643;49.564;17.412;2022-10-17T05:41:03;99419.78;;;8.90;92.63
73429;BME280;61643;49.564;17.412;2022-10-17T05:43:29;99414.59;;;8.95;92.19
73429;BME280;61643;49.564;17.412;2022-10-17T05:45:55;99423.91;;;8.93;93.29
73429;BME280;61643;49.564;17.412;2022-10-17T05:48:21;99430.63;;;9.08;94.02
73429;BME280;61643;49.564;17.412;2022-10-17T05:50:47;99441.03;;;9.23;93.09
73429;BME280;61643;49.564;17.412;2022-10-17T05:53:13;99433.75;;;9.30;92.47
73429;BME280;61643;49.564;17.412;2022-10-17T05:55:39;99445.00;;;9.45;92.12
73429;BME280;61643;49.564;17.412;2022-10-17T05:58:04;99442.06;;;9.53;92.98
73429;BME280;61643;49.564;17.412;2022-10-17T06:00:29;99449.41;;;9.64;91.97
73429;BME280;61643;49.564;17.412;2022-10-17T06:02:55;99456.97;;;9.74;92.35
73429;BME280;61643;49.564;17.412;2022-10-17T06:05:20;99447.06;;;9.93;91.91
73429;BME280;61643;49.564;17.412;2022-10-17T06:07:47;99446.69;;;10.07;91.06
73429;BME280;61643;49.564;17.412;2022-10-17T06:10:14;99453.13;;;10.06;91.33
73429;BME280;61643;49.564;17.412;2022-10-17T06:12:42;99454.88;;;10.19;91.05
73429;BME280;61643;49.564;17.412;2022-10-17T06:15:08;99458.91;;;10.28;90.53
73429;BME280;61643;49.564;17.412;2022-10-17T06:17:34;99459.81;;;10.22;91.22
73429;BME280;61643;49.564;17.412;2022-10-17T06:19:59;99455.94;;;10.36;91.71
73429;BME280;61643;49.564;17.412;2022-10-17T06:22:25;99462.78;;;10.50;92.23
73429;BME280;61643;49.564;17.412;2022-10-17T06:24:50;99470.13;;;10.61;91.55
73429;BME280;61643;49.564;17.412;2022-10-17T06:27:18;99472.25;;;10.71;91.08
73429;BME280;61643;49.564;17.412;2022-10-17T06:29:44;99473.69;;;10.73;90.66
73429;BME280;61643;49.564;17.412;2022-10-17T06:32:09;99472.19;;;10.77;91.18
73429;BME280;61643;49.564;17.412;2022-10-17T06:34:34;99469.16;;;10.85;90.46
73429;BME280;61643;49.564;17.412;2022-10-17T06:37:00;99472.00;;;10.91;91.22
73429;BME280;61643;49.564;17.412;2022-10-17T06:39:25;99471.91;;;10.97;90.91
73429;BME280;61643;49.564;17.412;2022-10-17T06:41:58;99489.78;;;11.10;90.65
73429;BME280;61643;49.564;17.412;2022-10-17T06:44:23;99487.56;;;11.18;90.43
73429;BME280;61643;49.564;17.412;2022-10-17T06:46:52;99481.66;;;11.28;90.84
73429;BME280;61643;49.564;17.412;2022-10-17T06:49:17;99488.00;;;11.45;90.08
73429;BME280;61643;49.564;17.412;2022-10-17T06:51:43;99490.00;;;11.61;89.84
73429;BME280;61643;49.564;17.412;2022-10-17T06:54:08;99495.47;;;11.73;89.50
73429;BME280;61643;49.564;17.412;2022-10-17T06:56:33;99488.69;;;11.82;89.34
73429;BME280;61643;49.564;17.412;2022-10-17T06:58:59;99494.09;;;11.94;89.13
73429;BME280;61643;49.564;17.412;2022-10-17T07:01:24;99491.84;;;12.02;89.04
73429;BME280;61643;49.564;17.412;2022-10-17T07:03:50;99503.00;;;12.29;88.15
73429;BME280;61643;49.564;17.412;2022-10-17T07:06:16;99512.50;;;12.43;87.24
73429;BME280;61643;49.564;17.412;2022-10-17T07:08:42;99515.19;;;12.55;87.18
73429;BME280;61643;49.564;17.412;2022-10-17T07:11:10;99521.13;;;12.68;86.38
73429;BME280;61643;49.564;17.412;2022-10-17T07:13:36;99516.38;;;12.87;85.18
73429;BME280;61643;49.564;17.412;2022-10-17T07:16:02;99518.47;;;12.97;84.87
73429;BME280;61643;49.564;17.412;2022-10-17T07:18:27;99520.69;;;13.11;83.84
73429;BME280;61643;49.564;17.412;2022-10-17T07:20:53;99520.84;;;13.21;83.32
73429;BME280;61643;49.564;17.412;2022-10-17T07:23:19;99522.19;;;13.36;82.45
73429;BME280;61643;49.564;17.412;2022-10-17T07:25:45;99518.47;;;13.53;81.57
73429;BME280;61643;49.564;17.412;2022-10-17T07:28:10;99521.94;;;13.65;80.21
73429;BME280;61643;49.564;17.412;2022-10-17T07:30:35;99516.84;;;13.69;80.62
73429;BME280;61643;49.564;17.412;2022-10-17T07:33:01;99526.22;;;13.78;79.97
73429;BME280;61643;49.564;17.412;2022-10-17T07:35:26;99533.84;;;13.81;80.31
73429;BME280;61643;49.564;17.412;2022-10-17T07:37:52;99531.47;;;13.85;80.29
73429;BME280;61643;49.564;17.412;2022-10-17T07:40:17;99535.00;;;13.85;80.07
73429;BME280;61643;49.564;17.412;2022-10-17T07:42:42;99526.06;;;13.85;79.84
73429;BME280;61643;49.564;17.412;2022-10-17T07:45:08;99536.38;;;13.88;79.58
73429;BME280;61643;49.564;17.412;2022-10-17T07:47:34;99533.19;;;13.91;79.04
73429;BME280;61643;49.564;17.412;2022-10-17T07:50:00;99537.75;;;13.90;79.26
73429;BME280;61643;49.564;17.412;2022-10-17T07:52:25;99532.94;;;13.92;80.61
73429;BME280;61643;49.564;17.412;2022-10-17T07:54:51;99540.63;;;14.00;80.13
73429;BME280;61643;49.564;17.412;2022-10-17T07:57:16;99536.47;;;14.09;78.97
73429;BME280;61643;49.564;17.412;2022-10-17T07:59:41;99543.09;;;14.18;79.66
73429;BME280;61643;49.564;17.412;2022-10-17T08:02:17;99543.41;;;14.22;78.38
73429;BME280;61643;49.564;17.412;2022-10-17T08:04:44;99545.69;;;14.30;77.13
73429;BME280;61643;49.564;17.412;2022-10-17T08:07:09;99543.16;;;14.40;75.58
73429;BME280;61643;49.564;17.412;2022-10-17T08:09:35;99545.41;;;14.43;75.93
73429;BME280;61643;49.564;17.412;2022-10-17T08:12:00;99551.47;;;14.50;75.32
73429;BME280;61643;49.564;17.412;2022-10-17T08:14:26;99549.41;;;14.57;75.12
73429;BME280;61643;49.564;17.412;2022-10-17T08:16:53;99549.44;;;14.62;74.78
73429;BME280;61643;49.564;17.412;2022-10-17T08:19:19;99544.63;;;14.64;74.86
73429;BME280;61643;49.564;17.412;2022-10-17T08:21:44;99541.72;;;14.71;74.47
73429;BME280;61643;49.564;17.412;2022-10-17T08:24:11;99543.91;;;14.74;75.02
73429;BME280;61643;49.564;17.412;2022-10-17T08:26:36;99549.66;;;14.77;74.85
73429;BME280;61643;49.564;17.412;2022-10-17T08:29:02;99551.84;;;14.81;74.66
73429;BME280;61643;49.564;17.412;2022-10-17T08:31:27;99548.41;;;14.85;74.87
73429;BME280;61643;49.564;17.412;2022-10-17T08:33:53;99552.50;;;14.88;73.67
73429;BME280;61643;49.564;17.412;2022-10-17T08:36:20;99554.44;;;14.92;73.90
73429;BME280;61643;49.564;17.412;2022-10-17T08:38:46;99553.44;;;14.98;74.10
73429;BME280;61643;49.564;17.412;2022-10-17T08:46:40;99540.38;;;15.17;72.16
73429;BME280;61643;49.564;17.412;2022-10-17T08:49:12;99537.97;;;15.20;72.38
73429;BME280;61643;49.564;17.412;2022-10-17T08:51:48;99546.19;;;15.25;71.71
73429;BME280;61643;49.564;17.412;2022-10-17T08:54:23;99544.59;;;15.30;71.80
73429;BME280;61643;49.564;17.412;2022-10-17T08:56:52;99546.72;;;15.27;72.38
73429;BME280;61643;49.564;17.412;2022-10-17T08:59:24;99539.72;;;15.32;72.46
73429;BME280;61643;49.564;17.412;2022-10-17T09:02:09;99542.19;;;15.33;73.37
73429;BME280;61643;49.564;17.412;2022-10-17T09:07:49;99544.72;;;15.45;71.45
73429;BME280;61643;49.564;17.412;2022-10-17T09:20:18;99544.22;;;15.69;69.76
73429;BME280;61643;49.564;17.412;2022-10-17T09:25:19;99538.50;;;15.71;70.76
73429;BME280;61643;49.564;17.412;2022-10-17T09:27:48;99536.09;;;15.74;70.08
73429;BME280;61643;49.564;17.412;2022-10-17T09:30:55;99534.22;;;15.75;70.22
73429;BME280;61643;49.564;17.412;2022-10-17T09:33:32;99541.84;;;15.78;70.59
73429;BME280;61643;49.564;17.412;2022-10-17T09:35:59;99541.31;;;15.81;70.63
73429;BME280;61643;49.564;17.412;2022-10-17T09:38:33;99541.13;;;15.88;70.19
73429;BME280;61643;49.564;17.412;2022-10-17T09:41:01;99543.03;;;15.87;70.47
73429;BME280;61643;49.564;17.412;2022-10-17T09:43:27;99538.44;;;15.93;69.96
73429;BME280;61643;49.564;17.412;2022-10-17T09:46:05;99546.34;;;15.99;70.52
73429;BME280;61643;49.564;17.412;2022-10-17T09:48:42;99544.75;;;16.03;69.42
73429;BME280;61643;49.564;17.412;2022-10-17T09:51:11;99540.69;;;16.01;69.72
73429;BME280;61643;49.564;17.412;2022-10-17T09:53:40;99545.28;;;16.00;69.83
73429;BME280;61643;49.564;17.412;2022-10-17T09:56:11;99549.66;;;16.01;69.74
73429;BME280;61643;49.564;17.412;2022-10-17T10:01:26;99542.09;;;16.08;70.72
73429;BME280;61643;49.564;17.412;2022-10-17T10:04:12;99543.53;;;16.16;70.39
73429;BME280;61643;49.564;17.412;2022-10-17T10:06:38;99543.84;;;16.24;70.69
73429;BME280;61643;49.564;17.412;2022-10-17T10:09:05;99537.91;;;16.28;70.59
73429;BME280;61643;49.564;17.412;2022-10-17T10:11:51;99538.69;;;16.28;70.03
73429;BME280;61643;49.564;17.412;2022-10-17T10:14:21;99540.09;;;16.31;70.13
73429;BME280;61643;49.564;17.412;2022-10-17T10:16:47;99540.38;;;16.34;70.64
73429;BME280;61643;49.564;17.412;2022-10-17T10:22:13;99535.56;;;16.46;69.22
73429;BME280;61643;49.564;17.412;2022-10-17T10:24:39;99527.09;;;16.43;68.92
73429;BME280;61643;49.564;17.412;2022-10-17T10:27:05;99542.41;;;16.54;69.46
73429;BME280;61643;49.564;17.412;2022-10-17T10:29:41;99549.47;;;16.55;69.16
73429;BME280;61643;49.564;17.412;2022-10-17T10:32:30;99559.31;;;16.56;69.23
73429;BME280;61643;49.564;17.412;2022-10-17T10:35:07;99551.16;;;16.61;69.09
73429;BME280;61643;49.564;17.412;2022-10-17T10:37:45;99540.28;;;16.61;69.25
73429;BME280;61643;49.564;17.412;2022-10-17T10:42:46;99544.41;;;16.68;69.31
73429;BME280;61643;49.564;17.412;2022-10-17T10:47:55;99535.22;;;16.75;68.70
73429;BME280;61643;49.564;17.412;2022-10-17T10:50:28;99538.53;;;16.82;69.13
73429;BME280;61643;49.564;17.412;2022-10-17T10:55:36;99531.47;;;16.91;68.62
73429;BME280;61643;49.564;17.412;2022-10-17T11:01:04;99521.47;;;17.06;67.54
73429;BME280;61643;49.564;17.412;2022-10-17T11:06:35;99525.59;;;17.29;66.90
73429;BME280;61643;49.564;17.412;2022-10-17T11:09:22;99521.28;;;17.28;66.52
73429;BME280;61643;49.564;17.412;2022-10-17T11:18:10;99520.47;;;17.48;65.16
73429;BME280;61643;49.564;17.412;2022-10-17T11:20:45;99502.25;;;17.53;65.11
73429;BME280;61643;49.564;17.412;2022-10-17T11:25:44;99510.19;;;17.60;65.80
73429;BME280;61643;49.564;17.412;2022-10-17T11:28:12;99515.09;;;17.63;65.79
73429;BME280;61643;49.564;17.412;2022-10-17T11:30:47;99508.56;;;17.69;64.29
73429;BME280;61643;49.564;17.412;2022-10-17T11:33:19;99512.91;;;17.70;63.29
73429;BME280;61643;49.564;17.412;2022-10-17T11:35:47;99514.00;;;17.69;63.53
73429;BME280;61643;49.564;17.412;2022-10-17T11:38:47;99517.28;;;17.71;63.11
73429;BME280;61643;49.564;17.412;2022-10-17T11:41:33;99514.28;;;17.73;62.92
73429;BME280;61643;49.564;17.412;2022-10-17T11:44:51;99502.31;;;17.74;63.17
73429;BME280;61643;49.564;17.412;2022-10-17T11:49:56;99498.50;;;17.80;63.20
73429;BME280;61643;49.564;17.412;2022-10-17T11:52:45;99500.13;;;17.81;63.97
73429;BME280;61643;49.564;17.412;2022-10-17T11:55:31;99498.78;;;17.83;63.45
73429;BME280;61643;49.564;17.412;2022-10-17T11:58:00;99505.03;;;17.84;63.66
73429;BME280;61643;49.564;17.412;2022-10-17T12:08:45;99495.22;;;17.98;62.82
73429;BME280;61643;49.564;17.412;2022-10-17T12:14:01;99500.41;;;18.04;61.95
73429;BME280;61643;49.564;17.412;2022-10-17T12:21:27;99491.38;;;18.09;61.89
73429;BME280;61643;49.564;17.412;2022-10-17T12:23:54;99485.66;;;18.05;61.86
73429;BME280;61643;49.564;17.412;2022-10-17T12:26:27;99487.03;;;18.13;62.18
73429;BME280;61643;49.564;17.412;2022-10-17T12:28:54;99485.69;;;18.15;62.61
73429;BME280;61643;49.564;17.412;2022-10-17T12:31:24;99498.75;;;18.18;61.56
73429;BME280;61643;49.564;17.412;2022-10-17T12:33:55;99482.94;;;18.15;62.17
73429;BME280;61643;49.564;17.412;2022-10-17T12:38:48;99485.69;;;18.15;61.81
73429;BME280;61643;49.564;17.412;2022-10-17T12:41:14;99487.28;;;18.16;60.82
73429;BME280;61643;49.564;17.412;2022-10-17T12:43:47;99487.03;;;18.23;61.48
73429;BME280;61643;49.564;17.412;2022-10-17T12:52:21;99487.53;;;18.35;61.18
73429;BME280;61643;49.564;17.412;2022-10-17T13:00:02;99473.34;;;18.38;61.55
73429;BME280;61643;49.564;17.412;2022-10-17T13:02:28;99475.25;;;18.38;60.87
73429;BME280;61643;49.564;17.412;2022-10-17T13:05:06;99473.06;;;18.40;59.85
73429;BME280;61643;49.564;17.412;2022-10-17T13:07:33;99474.72;;;18.41;60.05
73429;BME280;61643;49.564;17.412;2022-10-17T13:10:00;99482.91;;;18.41;59.94
73429;BME280;61643;49.564;17.412;2022-10-17T13:12:30;99474.72;;;18.41;60.47
73429;BME280;61643;49.564;17.412;2022-10-17T13:14:58;99475.25;;;18.43;60.63
73429;BME280;61643;49.564;17.412;2022-10-17T13:17:27;99477.16;;;18.47;59.53
73429;BME280;61643;49.564;17.412;2022-10-17T13:19:54;99476.88;;;18.44;60.28
73429;BME280;61643;49.564;17.412;2022-10-17T13:22:24;99473.91;;;18.40;58.84
73429;BME280;61643;49.564;17.412;2022-10-17T13:24:52;99472.53;;;18.38;59.71
73429;BME280;61643;49.564;17.412;2022-10-17T13:27:31;99473.63;;;18.37;59.20
73429;BME280;61643;49.564;17.412;2022-10-17T13:29:58;99478.25;;;18.36;59.05
73429;BME280;61643;49.564;17.412;2022-10-17T13:32:25;99468.75;;;18.34;58.91
73429;BME280;61643;49.564;17.412;2022-10-17T13:35:12;99459.19;;;18.36;58.45
73429;BME280;61643;49.564;17.412;2022-10-17T13:37:42;99460.00;;;18.37;59.05
73429;BME280;61643;49.564;17.412;2022-10-17T13:40:19;99463.00;;;18.35;58.00
73429;BME280;61643;49.564;17.412;2022-10-17T13:42:45;99465.97;;;18.39;57.96
73429;BME280;61643;49.564;17.412;2022-10-17T13:45:26;99473.06;;;18.35;58.06
73429;BME280;61643;49.564;17.412;2022-10-17T13:47:53;99467.09;;;18.28;59.38
73429;BME280;61643;49.564;17.412;2022-10-17T13:50:23;99469.81;;;18.28;59.40
73429;BME280;61643;49.564;17.412;2022-10-17T13:53:23;99463.84;;;18.26;59.18
73429;BME280;61643;49.564;17.412;2022-10-17T13:58:16;99471.47;;;18.24;58.21
73429;BME280;61643;49.564;17.412;2022-10-17T14:00:45;99466.88;;;18.19;58.49
73429;BME280;61643;49.564;17.412;2022-10-17T14:03:14;99458.16;;;18.12;58.98
73429;BME280;61643;49.564;17.412;2022-10-17T14:06:04;99452.97;;;18.10;59.27
73429;BME280;61643;49.564;17.412;2022-10-17T14:08:31;99460.03;;;18.16;58.82
73429;BME280;61643;49.564;17.412;2022-10-17T14:10:57;99470.41;;;18.14;59.60
73429;BME280;61643;49.564;17.412;2022-10-17T14:13:28;99470.66;;;18.13;58.26
73429;BME280;61643;49.564;17.412;2022-10-17T14:16:01;99466.88;;;18.09;58.52
73429;BME280;61643;49.564;17.412;2022-10-17T14:18:34;99468.50;;;18.10;59.19
73429;BME280;61643;49.564;17.412;2022-10-17T14:21:00;99465.50;;;18.06;59.44
73429;BME280;61643;49.564;17.412;2022-10-17T14:23:45;99466.88;;;18.04;58.77
73429;BME280;61643;49.564;17.412;2022-10-17T14:26:17;99467.41;;;18.06;58.14
73429;BME280;61643;49.564;17.412;2022-10-17T14:28:46;99464.72;;;18.01;58.71
73429;BME280;61643;49.564;17.412;2022-10-17T14:31:17;99458.16;;;18.02;58.39
73429;BME280;61643;49.564;17.412;2022-10-17T14:33:45;99460.34;;;18.00;57.94
73429;BME280;61643;49.564;17.412;2022-10-17T14:36:11;99456.53;;;17.96;58.67
73429;BME280;61643;49.564;17.412;2022-10-17T14:38:37;99461.72;;;17.92;59.09
73429;BME280;61643;49.564;17.412;2022-10-17T14:43:58;99454.91;;;17.85;58.45
73429;BME280;61643;49.564;17.412;2022-10-17T14:46:25;99453.28;;;17.79;58.76
73429;BME280;61643;49.564;17.412;2022-10-17T14:48:57;99460.38;;;17.75;59.31
73429;BME280;61643;49.564;17.412;2022-10-17T14:51:26;99458.47;;;17.65;58.90